Escuela Mariscal Sucre Airport


Codes: SVBS/MYC
Name: Escuela Mariscal Sucre Airport
City: Maracay
Country: Venezuela
Elevation: 1338 ft.
Wikipedia:

Photos at Escuela Mariscal Sucre Airport


   Photos courtesy of SpottingLog. You can add your own sightings and photos by signing up for a free trial today.



No photos found.

Weather at Escuela Mariscal Sucre Airport


Time (UTC)DescriptionTempratureWindCloud coverageVisibilityPressureHumidity
23-May-2024 21:00Light Rain30°C4 mph, W99%10000m1011hPa55%
24-May-2024 00:00Light Rain28°C2 mph, N100%10000m1011hPa66%
24-May-2024 03:00Light Rain26°C2 mph, N58%10000m1013hPa78%
24-May-2024 06:00Light Rain25°C2 mph, N63%10000m1011hPa80%
24-May-2024 09:00Broken Clouds25°C2 mph, E84%10000m1012hPa80%
24-May-2024 12:00Overcast Clouds26°C2 mph, SE91%10000m1013hPa74%
24-May-2024 15:00Broken Clouds31°C4 mph, S83%10000m1013hPa55%
24-May-2024 18:00Light Rain33°C7 mph, S85%10000m1010hPa46%
24-May-2024 21:00Light Rain32°C7 mph, NW66%10000m1009hPa53%
25-May-2024 00:00Light Rain28°C4 mph, NW83%10000m1012hPa73%
25-May-2024 03:00Light Rain25°C7 mph, NW100%10000m1013hPa84%
25-May-2024 06:00Overcast Clouds25°C4 mph, N100%7254m1012hPa87%
25-May-2024 09:00Overcast Clouds24°C4 mph, N100%9515m1011hPa86%
25-May-2024 12:00Overcast Clouds27°C0 mph, NE100%10000m1013hPa74%
25-May-2024 15:00Light Rain31°C4 mph, S98%10000m1013hPa54%
25-May-2024 18:00Light Rain31°C2 mph, NW92%10000m1011hPa55%
25-May-2024 21:00Light Rain28°C7 mph, NW100%9112m1010hPa74%
26-May-2024 00:00Light Rain25°C2 mph, N100%2358m1013hPa84%
26-May-2024 03:00Light Rain25°C2 mph, N100%10000m1014hPa84%
26-May-2024 06:00Light Rain24°C2 mph, NW100%10000m1013hPa87%
26-May-2024 09:00Light Rain24°C2 mph, SW97%10000m1013hPa88%
26-May-2024 12:00Overcast Clouds25°C4 mph, SW85%10000m1015hPa83%
26-May-2024 15:00Light Rain29°C4 mph, SW84%10000m1015hPa65%
26-May-2024 18:00Light Rain27°C7 mph, SW88%10000m1013hPa75%
26-May-2024 21:00Light Rain25°C4 mph, W100%10000m1012hPa87%
27-May-2024 00:00Light Rain24°C4 mph, NW100%10000m1014hPa93%
27-May-2024 03:00Light Rain23°C2 mph, NW85%10000m1015hPa90%
27-May-2024 06:00Light Rain23°C2 mph, N83%10000m1014hPa89%
27-May-2024 09:00Broken Clouds23°C2 mph, NE84%10000m1014hPa86%
27-May-2024 12:00Overcast Clouds25°C0 mph, SE87%10000m1016hPa77%
27-May-2024 15:00Light Rain27°C4 mph, SE97%10000m1016hPa67%
27-May-2024 18:00Light Rain26°C7 mph, SE84%10000m1014hPa77%
27-May-2024 21:00Broken Clouds28°C7 mph, SE77%10000m1012hPa65%
28-May-2024 00:00Broken Clouds25°C4 mph, SE79%10000m1014hPa79%
28-May-2024 03:00Overcast Clouds25°C2 mph, S85%10000m1015hPa81%
28-May-2024 06:00Overcast Clouds24°C2 mph, SW92%10000m1014hPa87%
28-May-2024 09:00Broken Clouds23°C2 mph, SW70%10000m1015hPa89%
28-May-2024 12:00Scattered Clouds25°C2 mph, S48%10000m1016hPa78%
28-May-2024 15:00Scattered Clouds29°C4 mph, S26%10000m1015hPa58%
28-May-2024 18:00Light Rain32°C7 mph, S39%10000m1012hPa47%